createdAt,value
2018-08-20T00:00:45.189Z,19.13
2018-08-20T00:03:13.857Z,19.13
2018-08-20T00:05:47.325Z,19.14
2018-08-20T00:08:15.762Z,19.17
2018-08-20T00:10:44.189Z,19.18
2018-08-20T00:13:12.626Z,19.35
2018-08-20T00:15:41.061Z,19.40
2018-08-20T00:18:12.333Z,19.53
2018-08-20T00:20:40.764Z,19.63
2018-08-20T00:23:09.164Z,19.80
2018-08-20T00:25:37.869Z,19.83
2018-08-20T00:28:06.285Z,19.99
2018-08-20T00:30:34.770Z,20.08
2018-08-20T00:33:03.186Z,20.17
2018-08-20T00:35:31.609Z,20.31
2018-08-20T00:38:00.021Z,20.38
2018-08-20T00:40:33.203Z,20.43
2018-08-20T00:43:01.650Z,20.49
2018-08-20T00:45:30.105Z,20.56
2018-08-20T00:47:58.511Z,20.56
2018-08-20T00:50:26.908Z,20.47
2018-08-20T00:52:55.389Z,20.28
2018-08-20T00:55:23.844Z,20.16
2018-08-20T00:57:52.298Z,20.16
2018-08-20T01:00:20.767Z,20.15
2018-08-20T01:02:49.205Z,20.18
2018-08-20T01:05:17.665Z,20.21
2018-08-20T01:07:46.105Z,20.22
2018-08-20T01:10:14.569Z,20.23
2018-08-20T01:12:43.013Z,20.23
2018-08-20T01:15:11.539Z,20.26
2018-08-20T01:17:39.968Z,20.26
2018-08-20T01:20:08.514Z,20.27
2018-08-20T01:22:37.015Z,20.33
2018-08-20T01:25:05.521Z,20.35
2018-08-20T01:27:33.986Z,20.36
2018-08-20T01:30:02.476Z,20.29
2018-08-20T01:32:30.967Z,20.22
2018-08-20T01:35:14.779Z,20.17
2018-08-20T01:37:43.317Z,20.16
2018-08-20T01:40:11.733Z,20.14
2018-08-20T01:42:40.235Z,20.09
2018-08-20T01:45:08.689Z,20.06
2018-08-20T01:47:37.153Z,20.05
2018-08-20T01:50:05.733Z,20.04
2018-08-20T01:52:34.224Z,20.05
2018-08-20T01:55:02.713Z,20.11
2018-08-20T01:57:31.187Z,20.12
2018-08-20T01:59:59.649Z,20.14
2018-08-20T02:02:28.133Z,20.18
2018-08-20T02:04:56.654Z,20.25
2018-08-20T02:07:25.113Z,20.31
2018-08-20T02:09:53.612Z,20.34
2018-08-20T02:12:22.072Z,20.30
2018-08-20T02:14:50.509Z,20.40
2018-08-20T02:17:19.084Z,20.37
2018-08-20T02:19:47.520Z,20.39
2018-08-20T02:22:16.014Z,20.36
2018-08-20T02:24:44.460Z,20.34
2018-08-20T02:27:12.941Z,20.24
2018-08-20T02:29:41.501Z,20.28
2018-08-20T02:32:10.001Z,20.32
2018-08-20T02:34:38.427Z,20.39
2018-08-20T02:37:07.116Z,20.36
2018-08-20T02:39:35.614Z,20.36
2018-08-20T02:42:06.210Z,20.41
2018-08-20T02:44:34.658Z,20.35
2018-08-20T02:47:03.199Z,20.33
2018-08-20T02:49:31.664Z,20.35
2018-08-20T02:52:00.119Z,20.34
2018-08-20T02:54:28.613Z,20.35
2018-08-20T02:56:57.076Z,20.40
2018-08-20T02:59:26.333Z,20.36
2018-08-20T03:01:54.731Z,20.39
2018-08-20T03:04:23.178Z,20.37
2018-08-20T03:06:51.570Z,20.36
2018-08-20T03:09:19.969Z,20.36
2018-08-20T03:11:48.403Z,20.31
2018-08-20T03:14:16.832Z,20.30
2018-08-20T03:16:45.240Z,20.32
2018-08-20T03:19:13.634Z,20.32
2018-08-20T03:21:42.037Z,20.37
2018-08-20T03:24:10.570Z,20.26
2018-08-20T03:26:39.002Z,20.28
2018-08-20T03:29:07.432Z,20.24
2018-08-20T03:31:35.858Z,20.21
2018-08-20T03:34:04.322Z,20.21
2018-08-20T03:36:32.944Z,20.22
2018-08-20T03:39:02.005Z,20.20
2018-08-20T03:41:30.397Z,20.18
2018-08-20T03:43:58.861Z,20.20
2018-08-20T03:46:27.368Z,20.18
2018-08-20T03:48:55.762Z,20.22
2018-08-20T03:51:24.281Z,20.16
2018-08-20T03:53:52.905Z,20.13
2018-08-20T03:56:21.598Z,20.12
2018-08-20T03:58:50.585Z,20.08
2018-08-20T04:01:19.162Z,20.09
2018-08-20T04:03:47.809Z,20.06
2018-08-20T04:06:16.501Z,20.04
2018-08-20T04:09:48.715Z,20.02
2018-08-20T04:12:17.357Z,19.97
2018-08-20T04:14:45.944Z,19.97
2018-08-20T04:17:14.757Z,19.99
2018-08-20T04:19:43.391Z,20.01
2018-08-20T04:22:12.060Z,20.01
2018-08-20T04:24:56.922Z,20.00
2018-08-20T04:27:25.601Z,19.86
2018-08-20T04:29:54.257Z,19.79
2018-08-20T04:32:23.005Z,19.73
2018-08-20T04:34:51.658Z,19.72
2018-08-20T04:37:20.274Z,19.72
2018-08-20T04:39:48.903Z,19.73
2018-08-20T04:42:17.787Z,19.80
2018-08-20T04:44:46.457Z,19.78
2018-08-20T04:47:15.025Z,19.82
2018-08-20T04:49:43.657Z,19.83
2018-08-20T04:52:12.099Z,19.85
2018-08-20T04:54:40.505Z,19.80
2018-08-20T04:57:08.973Z,19.78
2018-08-20T04:59:37.369Z,19.78
2018-08-20T05:02:06.034Z,19.78
2018-08-20T05:04:34.463Z,19.73
2018-08-20T05:07:02.946Z,19.72
2018-08-20T05:09:31.478Z,19.74
2018-08-20T05:11:59.998Z,19.83
2018-08-20T05:14:28.425Z,19.83
2018-08-20T05:16:56.947Z,19.89
2018-08-20T05:19:25.385Z,19.93
2018-08-20T05:21:53.841Z,20.00
2018-08-20T05:24:22.335Z,20.00
2018-08-20T05:26:50.765Z,20.04
2018-08-20T05:29:19.740Z,20.06
2018-08-20T05:31:48.174Z,20.17
2018-08-20T05:34:16.656Z,20.20
2018-08-20T05:36:45.126Z,20.14
2018-08-20T05:39:13.557Z,20.12
2018-08-20T05:41:41.975Z,20.19
2018-08-20T05:44:10.397Z,20.20
2018-08-20T05:46:38.839Z,20.28
2018-08-20T05:49:07.305Z,20.25
2018-08-20T05:51:35.765Z,20.42
2018-08-20T05:54:04.343Z,20.40
2018-08-20T05:56:32.800Z,20.48
2018-08-20T05:59:01.253Z,20.47
2018-08-20T06:01:30.021Z,20.58
2018-08-20T06:03:58.515Z,20.70
2018-08-20T06:06:27.041Z,20.66
2018-08-20T06:08:55.470Z,20.77
2018-08-20T06:11:23.925Z,20.96
2018-08-20T06:13:52.405Z,20.87
2018-08-20T06:16:23.869Z,20.93
2018-08-20T06:18:52.359Z,20.94
2018-08-20T06:21:20.842Z,21.05
2018-08-20T06:23:49.326Z,21.16
2018-08-20T06:26:17.804Z,21.21
2018-08-20T06:28:46.286Z,21.30
2018-08-20T06:31:14.707Z,21.34
2018-08-20T06:33:43.194Z,21.13
2018-08-20T06:36:11.750Z,21.07
2018-08-20T06:38:40.248Z,20.96
2018-08-20T06:41:08.840Z,20.90
2018-08-20T06:43:37.280Z,20.88
2018-08-20T06:46:05.857Z,20.96
2018-08-20T06:48:34.404Z,21.13
2018-08-20T06:51:02.898Z,21.01
2018-08-20T06:53:31.390Z,21.15
2018-08-20T06:55:59.877Z,21.20
2018-08-20T06:58:28.490Z,21.28
2018-08-20T07:00:57.051Z,21.61
2018-08-20T07:03:25.521Z,21.53
2018-08-20T07:05:53.955Z,21.65
2018-08-20T07:08:22.463Z,21.44
2018-08-20T07:10:50.939Z,21.62
2018-08-20T07:13:27.449Z,21.59
2018-08-20T07:15:55.887Z,21.48
2018-08-20T07:18:24.373Z,21.55
2018-08-20T07:20:52.837Z,21.72
2018-08-20T07:23:21.437Z,21.72
2018-08-20T07:25:49.926Z,21.65
2018-08-20T07:28:18.385Z,21.68
2018-08-20T07:30:46.963Z,21.57
2018-08-20T07:33:15.507Z,21.77
2018-08-20T07:35:43.969Z,21.82
2018-08-20T07:40:39.886Z,21.87
2018-08-20T07:43:08.459Z,21.78
2018-08-20T07:45:36.935Z,21.97
2018-08-20T07:48:05.433Z,22.13
2018-08-20T07:50:33.943Z,22.35
2018-08-20T07:53:02.393Z,22.37
2018-08-20T07:55:30.906Z,22.36
2018-08-20T07:57:59.328Z,22.29
2018-08-20T08:00:27.740Z,22.24
2018-08-20T08:02:56.204Z,21.98
2018-08-20T08:05:24.609Z,21.91
2018-08-20T08:07:53.054Z,22.20
2018-08-20T08:10:21.489Z,22.15
2018-08-20T08:12:49.887Z,22.03
2018-08-20T08:15:18.342Z,22.03
2018-08-20T08:17:46.980Z,22.11
2018-08-20T08:20:16.016Z,22.25
2018-08-20T08:22:44.738Z,22.29
2018-08-20T08:25:13.196Z,22.36
2018-08-20T08:27:41.626Z,22.32
2018-08-20T08:30:16.817Z,22.23
2018-08-20T08:32:45.442Z,22.23
2018-08-20T08:35:14.523Z,22.29
2018-08-20T08:37:43.052Z,22.34
2018-08-20T08:40:13.270Z,22.44
2018-08-20T08:42:41.733Z,22.65
2018-08-20T08:45:17.068Z,22.78
2018-08-20T08:47:46.025Z,22.72
2018-08-20T08:50:15.801Z,22.61
2018-08-20T08:52:44.506Z,22.99
2018-08-20T08:55:12.986Z,22.81
2018-08-20T08:57:41.407Z,22.75
2018-08-20T09:00:18.684Z,22.77
2018-08-20T09:02:47.341Z,23.06
2018-08-20T09:05:15.885Z,23.44
2018-08-20T09:07:44.465Z,23.57
2018-08-20T09:10:13.410Z,23.74
2018-08-20T09:12:53.164Z,24.12
2018-08-20T09:15:21.770Z,24.28
2018-08-20T09:17:50.193Z,24.22
2018-08-20T09:20:18.729Z,24.02
2018-08-20T09:22:47.160Z,23.65
2018-08-20T09:25:16.157Z,23.42
2018-08-20T09:27:45.626Z,23.54
2018-08-20T09:30:16.666Z,23.65
2018-08-20T09:32:46.121Z,24.01
2018-08-20T09:35:14.571Z,24.12
2018-08-20T09:37:43.643Z,24.08
2018-08-20T09:40:12.613Z,24.08
2018-08-20T09:42:41.685Z,23.85
2018-08-20T09:45:10.381Z,23.63
2018-08-20T09:47:39.731Z,23.71
2018-08-20T09:50:09.913Z,23.52
2018-08-20T09:52:38.391Z,23.60
2018-08-20T09:55:07.673Z,23.69
2018-08-20T09:57:36.177Z,23.80
2018-08-20T10:00:07.090Z,23.74
2018-08-20T10:02:35.581Z,23.75
2018-08-20T10:05:04.114Z,23.67
2018-08-20T10:07:32.710Z,23.66
2018-08-20T10:10:01.580Z,23.71
2018-08-20T10:12:46.591Z,23.85
2018-08-20T10:15:15.506Z,23.99
2018-08-20T10:17:53.169Z,24.25
2018-08-20T10:26:11.045Z,24.04
2018-08-20T10:28:49.868Z,24.01
2018-08-20T10:31:24.494Z,24.02
2018-08-20T10:33:53.258Z,23.79
2018-08-20T10:36:21.822Z,23.94
2018-08-20T10:38:50.213Z,24.07
2018-08-20T10:41:22.906Z,23.99
2018-08-20T10:43:51.367Z,23.99
2018-08-20T10:46:20.149Z,24.31
2018-08-20T10:48:48.825Z,24.32
2018-08-20T10:51:17.255Z,24.56
2018-08-20T10:53:45.689Z,24.70
2018-08-20T10:56:14.665Z,24.76
2018-08-20T10:58:43.077Z,24.94
2018-08-20T11:01:11.485Z,24.82
2018-08-20T11:03:43.335Z,25.14
2018-08-20T11:06:11.729Z,25.04
2018-08-20T11:08:42.224Z,25.25
2018-08-20T11:11:10.622Z,25.27
2018-08-20T11:13:39.081Z,25.54
2018-08-20T11:16:07.526Z,25.56
2018-08-20T11:18:39.643Z,25.60
2018-08-20T11:21:08.030Z,25.45
2018-08-20T11:23:36.478Z,25.37
2018-08-20T11:26:04.887Z,25.57
2018-08-20T11:28:33.351Z,24.80
2018-08-20T11:31:01.797Z,25.38
2018-08-20T11:33:30.263Z,25.35
2018-08-20T11:36:03.110Z,25.09
2018-08-20T11:38:31.575Z,25.19
2018-08-20T11:40:59.996Z,25.31
2018-08-20T11:43:28.425Z,25.24
2018-08-20T11:45:56.804Z,25.42
2018-08-20T11:48:25.233Z,25.45
2018-08-20T11:50:53.657Z,25.27
2018-08-20T11:53:23.097Z,25.44
2018-08-20T11:55:51.642Z,25.44
2018-08-20T11:58:20.051Z,25.21
2018-08-20T12:00:48.466Z,25.22
2018-08-20T12:03:17.464Z,24.96
2018-08-20T12:05:46.408Z,25.32
2018-08-20T12:08:15.414Z,25.22
2018-08-20T12:10:44.386Z,25.24
2018-08-20T12:13:13.047Z,25.21
2018-08-20T12:15:41.477Z,25.87
2018-08-20T12:18:09.921Z,25.85
2018-08-20T12:20:38.385Z,25.93
2018-08-20T12:23:07.783Z,25.64
2018-08-20T12:25:36.205Z,25.44
2018-08-20T12:28:04.683Z,25.34
2018-08-20T12:30:33.141Z,25.35
2018-08-20T12:33:01.606Z,25.73
2018-08-20T12:35:30.073Z,25.68
2018-08-20T12:37:58.477Z,25.71
2018-08-20T12:40:27.127Z,25.89
2018-08-20T12:42:56.024Z,25.87
2018-08-20T12:45:24.476Z,25.88
2018-08-20T12:47:52.897Z,25.84
2018-08-20T12:50:23.340Z,25.72
2018-08-20T12:52:51.815Z,25.55
2018-08-20T12:55:20.213Z,25.77
2018-08-20T12:57:49.038Z,25.59
2018-08-20T13:00:17.948Z,25.42
2018-08-20T13:14:18.800Z,25.62
2018-08-20T13:16:47.278Z,25.41
2018-08-20T13:19:15.709Z,25.36
2018-08-20T13:21:44.148Z,25.46
2018-08-20T13:24:12.647Z,25.25
2018-08-20T13:26:41.117Z,25.14
2018-08-20T13:29:09.624Z,25.01
2018-08-20T13:31:40.217Z,24.89
2018-08-20T13:34:08.679Z,24.89
2018-08-20T13:36:37.112Z,25.12
2018-08-20T13:39:07.085Z,25.05
2018-08-20T13:41:35.679Z,25.01
2018-08-20T13:44:04.293Z,25.26
2018-08-20T13:46:32.679Z,25.41
2018-08-20T13:49:01.120Z,25.25
2018-08-20T13:51:29.546Z,25.19
2018-08-20T13:53:57.936Z,25.33
2018-08-20T13:56:26.385Z,25.40
2018-08-20T13:58:54.805Z,25.27
2018-08-20T14:01:23.213Z,25.14
2018-08-20T14:03:51.623Z,25.29
2018-08-20T14:06:20.049Z,25.39
2018-08-20T14:08:48.469Z,25.50
2018-08-20T14:11:16.880Z,25.57
2018-08-20T14:13:45.255Z,25.38
2018-08-20T14:16:13.686Z,25.30
2018-08-20T14:18:42.130Z,25.45
2018-08-20T14:21:13.181Z,25.49
2018-08-20T14:23:43.262Z,25.35
2018-08-20T14:26:11.747Z,25.64
2018-08-20T14:28:40.154Z,25.54
2018-08-20T14:31:08.642Z,25.52
2018-08-20T14:33:37.065Z,25.65
2018-08-20T14:36:05.973Z,25.48
2018-08-20T14:38:34.761Z,25.68
2018-08-20T14:41:03.282Z,25.57
2018-08-20T14:43:31.761Z,25.26
2018-08-20T14:46:06.381Z,25.24
2018-08-20T14:48:34.868Z,25.39
2018-08-20T14:51:03.439Z,25.38
2018-08-20T14:53:31.942Z,25.63
2018-08-20T14:56:00.376Z,25.45
2018-08-20T14:58:28.857Z,25.65
2018-08-20T15:00:57.343Z,26.08
2018-08-20T15:03:25.902Z,26.86
2018-08-20T15:05:54.432Z,28.02
2018-08-20T15:08:22.914Z,27.47
2018-08-20T15:10:51.476Z,27.20
2018-08-20T15:13:20.861Z,26.71
2018-08-20T15:15:49.290Z,26.81
2018-08-20T15:18:17.710Z,26.64
2018-08-20T15:20:46.187Z,26.54
2018-08-20T15:23:14.637Z,26.66
2018-08-20T15:25:43.077Z,26.33
2018-08-20T15:28:11.543Z,26.22
2018-08-20T15:30:40.004Z,26.09
2018-08-20T15:33:08.590Z,26.05
2018-08-20T15:35:43.738Z,25.98
2018-08-20T15:38:12.244Z,25.96
2018-08-20T15:40:41.713Z,26.08
2018-08-20T15:43:10.157Z,26.28
2018-08-20T15:45:38.605Z,25.97
2018-08-20T15:48:07.402Z,25.79
2018-08-20T15:50:35.883Z,25.84
2018-08-20T15:53:07.962Z,25.74
2018-08-20T15:55:36.319Z,25.66
2018-08-20T15:58:05.031Z,25.43
2018-08-20T16:00:34.309Z,25.51
2018-08-20T16:03:03.873Z,25.44
2018-08-20T16:05:32.350Z,25.33
2018-08-20T16:08:00.794Z,25.13
2018-08-20T16:10:29.386Z,25.06
2018-08-20T16:12:57.898Z,25.10
2018-08-20T16:15:26.305Z,25.00
2018-08-20T16:17:54.710Z,24.96
2018-08-20T16:20:23.165Z,25.01
2018-08-20T16:22:51.634Z,25.04
2018-08-20T16:25:20.073Z,24.98
2018-08-20T16:27:48.477Z,25.04
2018-08-20T16:30:16.930Z,24.98
2018-08-20T16:32:45.386Z,24.93
2018-08-20T16:35:17.236Z,24.94
2018-08-20T16:37:45.700Z,25.05
2018-08-20T16:40:14.186Z,25.16
2018-08-20T16:42:42.667Z,25.05
2018-08-20T16:45:11.183Z,24.98
2018-08-20T16:47:40.021Z,24.81
2018-08-20T16:50:10.465Z,24.73
2018-08-20T16:52:38.929Z,24.70
2018-08-20T16:55:07.954Z,24.68
2018-08-20T16:57:36.547Z,24.64
2018-08-20T17:00:06.861Z,24.68
2018-08-20T17:02:36.108Z,24.74
2018-08-20T17:05:04.705Z,24.75
2018-08-20T17:07:33.218Z,24.70
2018-08-20T17:10:01.664Z,24.68
2018-08-20T17:12:30.110Z,24.68
2018-08-20T17:14:59.545Z,24.65
2018-08-20T17:17:28.009Z,24.50
2018-08-20T17:19:56.421Z,24.44
2018-08-20T17:22:24.876Z,24.36
2018-08-20T17:24:56.676Z,24.25
2018-08-20T17:27:25.129Z,24.14
2018-08-20T17:29:55.635Z,24.14
2018-08-20T17:32:24.134Z,24.17
2018-08-20T17:34:52.700Z,24.19
2018-08-20T17:37:21.925Z,24.10
2018-08-20T17:40:06.285Z,24.11
2018-08-20T17:42:35.035Z,24.10
2018-08-20T17:45:03.952Z,23.96
2018-08-20T17:47:32.814Z,23.92
2018-08-20T17:50:01.644Z,23.85
2018-08-20T17:52:34.107Z,23.76
2018-08-20T17:55:04.056Z,23.74
2018-08-20T17:57:32.610Z,23.71
2018-08-20T18:00:42.897Z,23.71
2018-08-20T18:03:18.881Z,23.73
2018-08-20T18:05:56.018Z,23.59
2018-08-20T18:08:25.613Z,23.53
2018-08-20T18:10:54.197Z,23.42
2018-08-20T18:13:49.511Z,23.40
2018-08-20T18:16:19.458Z,23.45
2018-08-20T18:18:49.311Z,23.38
2018-08-20T18:21:17.851Z,23.29
2018-08-20T18:23:46.371Z,23.32
2018-08-20T18:26:16.029Z,23.35
2018-08-20T18:28:49.911Z,23.28
2018-08-20T18:31:25.094Z,23.24
2018-08-20T18:33:53.681Z,23.25
2018-08-20T18:36:29.801Z,23.12
2018-08-20T18:39:01.915Z,23.18
2018-08-20T18:41:51.884Z,23.12
2018-08-20T18:44:21.777Z,23.03
2018-08-20T18:46:50.873Z,22.87
2018-08-20T18:49:19.576Z,22.93
2018-08-20T18:52:07.313Z,22.90
2018-08-20T18:54:40.488Z,22.91
2018-08-20T18:57:09.566Z,22.77
2018-08-20T18:59:39.271Z,22.82
2018-08-20T19:02:09.772Z,22.91
2018-08-20T19:04:43.456Z,22.80
2018-08-20T19:07:16.017Z,22.82
2018-08-20T19:09:48.512Z,22.79
2018-08-20T19:12:17.039Z,22.72
2018-08-20T19:14:45.568Z,22.62
2018-08-20T19:17:27.291Z,22.58
2018-08-20T19:20:00.298Z,22.61
2018-08-20T19:22:29.817Z,22.63
2018-08-20T19:24:58.293Z,22.61
2018-08-20T19:27:28.943Z,22.62
2018-08-20T19:29:57.473Z,22.61
2018-08-20T19:32:26.209Z,22.57
2018-08-20T19:34:54.675Z,22.69
2018-08-20T19:37:23.334Z,22.71
2018-08-20T19:39:51.799Z,22.60
2018-08-20T19:42:38.725Z,22.68
2018-08-20T19:45:09.130Z,22.54
2018-08-20T19:47:37.601Z,22.52
2018-08-20T19:50:07.515Z,22.63
2018-08-20T19:52:36.060Z,22.52
2018-08-20T19:55:08.882Z,22.57
2018-08-20T19:57:37.527Z,22.58
2018-08-20T20:00:09.190Z,22.54
2018-08-20T20:02:37.809Z,22.54
2018-08-20T20:05:06.963Z,22.56
2018-08-20T20:07:36.884Z,22.46
2018-08-20T20:10:13.885Z,22.37
2018-08-20T20:12:47.712Z,22.32
2018-08-20T20:15:16.185Z,22.35
2018-08-20T20:17:44.752Z,22.34
2018-08-20T20:20:13.197Z,22.26
2018-08-20T20:22:42.693Z,22.22
2018-08-20T20:25:11.198Z,22.28
2018-08-20T20:27:39.678Z,22.28
2018-08-20T20:30:08.606Z,22.43
2018-08-20T20:32:37.113Z,22.47
2018-08-20T20:35:07.173Z,22.40
2018-08-20T20:37:35.671Z,22.32
2018-08-20T20:40:04.277Z,22.23
2018-08-20T20:42:32.777Z,22.19
2018-08-20T20:45:01.298Z,22.24
2018-08-20T20:47:29.830Z,22.27
2018-08-20T20:50:00.434Z,22.30
2018-08-20T20:52:29.012Z,22.28
2018-08-20T20:54:57.517Z,22.20
2018-08-20T20:57:25.948Z,22.16
2018-08-20T20:59:54.769Z,22.10
2018-08-20T21:02:23.246Z,22.05
2018-08-20T21:04:51.723Z,21.95
2018-08-20T21:07:24.713Z,21.90
2018-08-20T21:09:53.256Z,21.95
2018-08-20T21:12:21.874Z,22.02
2018-08-20T21:14:50.413Z,21.97
2018-08-20T21:17:18.896Z,21.95
2018-08-20T21:19:47.447Z,22.02
2018-08-20T21:22:15.861Z,22.04
2018-08-20T21:24:44.373Z,22.12
2018-08-20T21:27:18.899Z,22.15
2018-08-20T21:29:47.448Z,22.10
2018-08-20T21:32:15.893Z,22.02
2018-08-20T21:34:44.424Z,21.99
2018-08-20T21:37:12.873Z,21.91
2018-08-20T21:39:41.389Z,21.85
2018-08-20T21:42:09.868Z,21.86
2018-08-20T21:44:38.487Z,21.84
2018-08-20T21:47:25.142Z,21.84
2018-08-20T21:49:53.582Z,21.82
2018-08-20T21:52:22.126Z,21.80
2018-08-20T21:54:50.538Z,21.70
2018-08-20T21:57:19.090Z,21.68
2018-08-20T21:59:59.281Z,21.63
2018-08-20T22:02:32.081Z,21.67
2018-08-20T22:05:00.533Z,21.66
2018-08-20T22:07:28.988Z,21.62
2018-08-20T22:09:57.418Z,21.64
2018-08-20T22:12:26.133Z,21.68
2018-08-20T22:14:54.582Z,21.66
2018-08-20T22:17:28.134Z,21.55
2018-08-20T22:19:56.698Z,21.51
2018-08-20T22:22:27.055Z,21.44
2018-08-20T22:24:58.843Z,21.64
2018-08-20T22:27:28.003Z,21.67
2018-08-20T22:30:00.417Z,21.67
2018-08-20T22:32:30.342Z,21.68
2018-08-20T22:34:58.945Z,21.68
2018-08-20T22:37:27.368Z,21.65
2018-08-20T22:40:01.102Z,21.60
2018-08-20T22:42:41.893Z,21.60
2018-08-20T22:45:11.621Z,21.60
2018-08-20T22:47:40.136Z,21.58
2018-08-20T22:50:08.581Z,21.59
2018-08-20T22:52:37.005Z,21.59
2018-08-20T22:55:07.272Z,21.54
2018-08-20T22:57:35.695Z,21.56
2018-08-20T23:00:11.220Z,21.57
2018-08-20T23:02:39.757Z,21.55
2018-08-20T23:05:12.357Z,21.54
2018-08-20T23:07:40.797Z,21.52
2018-08-20T23:10:09.297Z,21.42
2018-08-20T23:12:40.792Z,21.34
2018-08-20T23:15:10.015Z,21.34
2018-08-20T23:17:38.479Z,21.28
2018-08-20T23:20:12.434Z,21.33
2018-08-20T23:22:40.853Z,21.32
2018-08-20T23:25:09.407Z,21.32
2018-08-20T23:27:40.861Z,21.36
2018-08-20T23:30:10.391Z,21.29
2018-08-20T23:32:38.831Z,21.23
2018-08-20T23:35:07.321Z,21.26
2018-08-20T23:37:36.090Z,21.26
2018-08-20T23:40:05.154Z,21.26
2018-08-20T23:42:33.582Z,21.23
2018-08-20T23:45:02.547Z,21.20
2018-08-20T23:47:30.993Z,21.24
2018-08-20T23:49:59.519Z,21.20
2018-08-20T23:52:27.942Z,21.19
2018-08-20T23:54:56.358Z,21.11
2018-08-20T23:57:24.775Z,21.19
2018-08-20T23:59:53.208Z,21.20
